REU273 FMEE-HKJK
Flight info
| Callsign | REU273 |
|---|---|
| Flight time | N/A |
| Altitude | 32000 |
| Route | UVENA2J UVENA UN304 MAEVA UL433 DO/N0492F340 UL433 ATOLA/N0493F330 UL433 KISAK/N0491F340 UL433 MOKAD UQ315 UTEPI UTEPI1A |
| Aircraft | B77W/H-SDE1E2E3FGHIJ2J3J4J5M1RWXY/LB1D1 |
Departure
| Time | 2026-04-26 08:55 |
|---|---|
| Airport | Roland Garros Airport (FMEE) |
Arrival
| Time | N/A |
|---|---|
| Airport | Jomo Kenyatta International Airport (HKJK) |
| Time | Latitude | Longitude | Altitude | Speed | Heading |
|---|---|---|---|---|---|
| 2026-04-26 08:35 | -20.89101 | 55.51305 | 181 ft | 0 kts | 207° |
| 2026-04-26 08:36 | -20.89102 | 55.51305 | 181 ft | 0 kts | 207° |
| 2026-04-26 08:45 | -20.89101 | 55.51305 | 181 ft | 0 kts | 207° |
| 2026-04-26 08:46 | -20.89100 | 55.51306 | 181 ft | 1 kts | 209° |
| 2026-04-26 08:46 | -20.89087 | 55.51316 | 179 ft | 2 kts | 226° |
| 2026-04-26 08:46 | -20.89078 | 55.51328 | 178 ft | 2 kts | 236° |
| 2026-04-26 08:47 | -20.89070 | 55.51342 | 177 ft | 2 kts | 246° |
| 2026-04-26 08:47 | -20.89065 | 55.51357 | 177 ft | 2 kts | 258° |
| 2026-04-26 08:47 | -20.89063 | 55.51373 | 176 ft | 2 kts | 269° |
| 2026-04-26 08:47 | -20.89064 | 55.51389 | 176 ft | 2 kts | 279° |
| 2026-04-26 08:48 | -20.89067 | 55.51404 | 176 ft | 2 kts | 290° |
| 2026-04-26 08:48 | -20.89073 | 55.51419 | 176 ft | 2 kts | 298° |
| 2026-04-26 08:48 | -20.89080 | 55.51433 | 176 ft | 2 kts | 297° |
| 2026-04-26 08:48 | -20.89087 | 55.51447 | 176 ft | 2 kts | 296° |
| 2026-04-26 08:49 | -20.89089 | 55.51452 | 176 ft | 0 kts | 295° |
| 2026-04-26 08:50 | -20.89087 | 55.51447 | 176 ft | 3 kts | 296° |
| 2026-04-26 08:51 | -20.89026 | 55.51317 | 174 ft | 11 kts | 296° |
| 2026-04-26 08:51 | -20.88991 | 55.51241 | 173 ft | 11 kts | 296° |
| 2026-04-26 08:51 | -20.88925 | 55.51185 | 169 ft | 14 kts | 339° |
| 2026-04-26 08:52 | -20.88822 | 55.51147 | 161 ft | 17 kts | 342° |
| 2026-04-26 08:52 | -20.88732 | 55.51096 | 155 ft | 15 kts | 302° |
| 2026-04-26 08:52 | -20.88703 | 55.50990 | 155 ft | 14 kts | 282° |
| 2026-04-26 08:52 | -20.88675 | 55.50882 | 153 ft | 16 kts | 288° |
| 2026-04-26 08:53 | -20.88635 | 55.50761 | 152 ft | 17 kts | 283° |
| 2026-04-26 08:53 | -20.88621 | 55.50632 | 153 ft | 16 kts | 273° |
| 2026-04-26 08:53 | -20.88607 | 55.50548 | 151 ft | 10 kts | 302° |
| 2026-04-26 08:53 | -20.88580 | 55.50496 | 149 ft | 4 kts | 229° |
| 2026-04-26 08:54 | -20.88600 | 55.50507 | 150 ft | 3 kts | 115° |
| 2026-04-26 08:54 | -20.88607 | 55.50526 | 151 ft | 4 kts | 108° |
| 2026-04-26 08:54 | -20.88643 | 55.50696 | 154 ft | 54 kts | 102° |
| 2026-04-26 08:54 | -20.88770 | 55.51320 | 154 ft | 116 kts | 102° |
| 2026-04-26 08:55 | -20.88979 | 55.52356 | 206 ft | 163 kts | 104° |
| 2026-04-26 08:55 | -20.89196 | 55.53532 | 826 ft | 166 kts | 101° |
| 2026-04-26 08:55 | -20.89072 | 55.54766 | 1490 ft | 174 kts | 72° |
| 2026-04-26 08:55 | -20.88384 | 55.55904 | 1840 ft | 195 kts | 51° |
| 2026-04-26 08:56 | -20.87207 | 55.56751 | 2222 ft | 217 kts | 25° |
| 2026-04-26 08:56 | -20.86173 | 55.56993 | 2406 ft | 237 kts | 5° |
| 2026-04-26 08:56 | -20.83878 | 55.56777 | 3046 ft | 259 kts | 356° |
| 2026-04-26 08:56 | -20.82027 | 55.56527 | 3566 ft | 273 kts | 356° |
| 2026-04-26 08:57 | -20.80134 | 55.56272 | 4241 ft | 281 kts | 355° |
| 2026-04-26 08:57 | -20.77985 | 55.55915 | 5106 ft | 286 kts | 346° |
| 2026-04-26 08:57 | -20.72326 | 55.53533 | 7293 ft | 297 kts | 339° |